Portada
METAR-TAF:

METAR-TAF

Aeropuertos :

Aeropuerto Internacional Rarotonga

Rarotonga, Islas Cook

latitud: 21-12S, longitud: 159-49W, altitud: 7 m

Observación

El informe se hizo hace 29 minutos, a las 03:00 UTC
Viento 6 kt del sureste
Temperatura 23°C
Humedad 61%
Presión 1015 hPa
Visibilidad 10 km o más
Nubes dispersas a una altura de 2100 ft
Cielo nuboso a una altura de 5000 ft
Cielo cubierto a una altura de 29000 ft

METAR: NCRG 220300Z 13006KT 9999 SCT021 BKN050 OVC290 23/15 Q1015

Hora: 17:29 (03:29 UTC)

Pronóstico

El informe se hizo hace 4 horas y 24 minutos, a las 23:05 UTC
Pronóstico válido del 22 a las 00 UTC al 22 a las 24 UTC
Viento 9 kt del sureste
Visibilidad 10 km o más
Nubes dispersas a una altura de 2000 ft

TAF: NCRG 212305Z 2200/2224 13009KT 9999 SCT020

Observaciones y pronósticos meteorológicos de más de 4000 aeropuertos (mensajes METAR y TAF).

Los puntos amarillos y rojos representan las estaciones disponibles.

Ponga el ratón en el punto deseado para ver el nombre de la estación.

Haga clic para ver las observaciones y los pronósticos meteorológicos.

Para cambiar el mapa : haga clic en los botones verdes con una cruz de color negro para hacer un zoom, en el botón verde con un guión para alejar o en las flechas verdes para mapas adyacentes.


METAR-TAF: